Richmond Airport, Australia

8:34 AM AEST on August 31, 2015 (GMT +1000)
Richmond | | Change Station
CLOSE
Current Station
Airport
Location: Richmond Airport,
Elevation: 676 ft
Nearby Weather Stations

Elev 676 ft 20.70 °S, 143.12 °E | Updated 34 minutes ago

Clear
Clear
59 °F
Feels Like 59 °F
N
5
Wind Variable Wind from ESE
Gusts mph

Today
High -- | Low -- °F
--% Chance of Precip.
Yesterday
High -- | Low -- °F
Precip. -- in
6:38 AM 6:18 PM
Full, 98% visible
Pressure 30.06 in
Visibility -9999.0 miles
Clouds
Dew Point 30 °F
Humidity 34%
Rainfall 0.00 in
Snow Depth Not available.
UV Not available.
Pollen Not available.
Air Quality Not available.
Flu Activity Not available.
METAR YRMD 302200Z AUTO 11004KT //// // ////// 15/M01 Q1018
Pressure 30.06 in
Visibility -9999.0 miles
Clouds
Dew Point 30 °F
Humidity 34%
Rainfall 0.00 in
Snow Depth Not available.
UV Not available.
Pollen Not available.
Air Quality Not available.
Flu Activity Not available.
METAR YRMD 302200Z AUTO 11004KT //// // ////// 15/M01 Q1018

10-Day Weather Forecast

×

Almanac

Astronomy

Aug. 31, 2015 Rise Set
Actual Time
Civil Twilight
Nautical Twilight
Astronomical Twilight
Moon
Length of Visible Light
Length of Day
Tomorrow will be .
, % of the Moon is Illuminated

Today's Extremes

Country Highs Country Lows

Community

WunderPhotos

Upload Photos

1,851,074 photos uploaded!

WunderBlogs® & News

Nearby

Air Quality

  Air Quality AQ Index Pollutant
Not available.

Snow Depth

Station Depth Elevation

Earthquake Activity

City Distance Mag. Time & Date
Minimum magnitude displayed is 2.5.

Coastal Water Temperatures

Place Temperature

Stations

Nearby Weather Stations

Station Location Temp. Windchill Dew Point Humidity Wind Precip. Elev Updated Type